Time;durP1;ratioP1;P1;durP2;ratioP2;P2;SDS_P1;SDS_P2;PMS_P1;PMS_P2;Temp;Humidity;BMP_temperature;BMP_pressure;BME280_temperature;BME280_humidity;BME280_pressure;Samples;Min_cycle;Max_cycle;Signal;HPM_P1;HPM_P2
2022/03/01 00:00:12;;;;;;;;;;;22.80;49.50;;;;;;5098620;28;936;-44
2022/03/01 00:02:38;;;;;;;;;;;22.80;49.40;;;;;;5097704;28;1906;-47
2022/03/01 00:05:05;;;;;;;;;;;22.90;49.50;;;;;;5098709;28;961;-46
2022/03/01 00:07:32;;;;;;;;;;;22.90;49.20;;;;;;5098047;28;1138;-44
2022/03/01 00:10:00;;;;;;;;;;;22.80;49.20;;;;;;5098751;28;1124;-45
2022/03/01 00:12:27;;;;;;;;;;;22.80;49.30;;;;;;5098431;28;885;-46
2022/03/01 00:14:54;;;;;;;;;;;22.80;49.30;;;;;;5098866;28;981;-44
2022/03/01 00:17:20;;;;;;;;;;;22.80;49.50;;;;;;5098628;28;1024;-45
2022/03/01 00:19:47;;;;;;;;;;;22.70;49.40;;;;;;5098774;28;1454;-43
2022/03/01 00:22:14;;;;;;;;;;;22.70;49.50;;;;;;5097870;28;1984;-44
2022/03/01 00:24:41;;;;;;;;;;;22.80;49.20;;;;;;5097499;28;977;-46
2022/03/01 00:27:09;;;;;;;;;;;22.70;49.30;;;;;;5097257;28;881;-43
2022/03/01 00:29:36;;;;;;;;;;;22.80;49.30;;;;;;5096860;28;993;-44
2022/03/01 00:32:03;;;;;;;;;;;22.70;49.20;;;;;;5098299;28;1044;-44
2022/03/01 00:34:30;;;;;;;;;;;22.70;49.40;;;;;;5096296;28;1000;-45
2022/03/01 00:36:56;;;;;;;;;;;22.70;49.50;;;;;;5096759;28;984;-45
2022/03/01 00:39:23;;;;;;;;;;;22.70;49.40;;;;;;5097058;28;1016;-48
2022/03/01 00:41:50;;;;;;;;;;;22.60;49.50;;;;;;5097677;28;1899;-44
2022/03/01 00:44:18;;;;;;;;;;;22.60;49.30;;;;;;5098245;28;938;-44
2022/03/01 00:46:45;;;;;;;;;;;22.60;49.40;;;;;;5097710;28;976;-46
2022/03/01 00:49:11;;;;;;;;;;;22.60;49.30;;;;;;5097760;28;1063;-43
2022/03/01 00:51:38;;;;;;;;;;;22.60;49.30;;;;;;5097858;28;934;-45
2022/03/01 00:54:05;;;;;;;;;;;22.60;49.30;;;;;;5097385;28;1354;-45
2022/03/01 00:56:31;;;;;;;;;;;22.60;49.30;;;;;;5097116;28;941;-43
2022/03/01 00:58:58;;;;;;;;;;;22.60;49.30;;;;;;5098044;28;1024;-45
2022/03/01 01:01:27;;;;;;;;;;;22.60;49.30;;;;;;5097425;28;1036;-46
2022/03/01 01:03:54;;;;;;;;;;;22.60;49.30;;;;;;5097862;28;1913;-43
2022/03/01 01:06:20;;;;;;;;;;;22.60;50.40;;;;;;5097411;28;1043;-43
2022/03/01 01:08:47;;;;;;;;;;;22.60;49.20;;;;;;5097296;28;1008;-47
2022/03/01 01:11:14;;;;;;;;;;;22.60;49.20;;;;;;5097541;28;953;-44
2022/03/01 01:13:40;;;;;;;;;;;22.60;49.30;;;;;;5097506;28;997;-44
2022/03/01 01:16:07;;;;;;;;;;;22.60;49.20;;;;;;5097459;28;981;-46
2022/03/01 01:18:38;;;;;;;;;;;22.60;49.10;;;;;;5096705;28;1021;-44
2022/03/01 01:21:05;;;;;;;;;;;22.60;49.10;;;;;;5097579;28;1039;-45
2022/03/01 01:23:32;;;;;;;;;;;22.60;49.00;;;;;;5097351;28;1898;-44
2022/03/01 01:25:59;;;;;;;;;;;22.60;49.00;;;;;;5096864;28;1016;-43
2022/03/01 01:28:25;;;;;;;;;;;22.60;48.90;;;;;;5097670;28;1013;-48
2022/03/01 01:30:52;;;;;;;;;;;22.60;49.00;;;;;;5098094;28;866;-46
2022/03/01 01:33:19;;;;;;;;;;;22.60;48.90;;;;;;5097707;28;1029;-44
2022/03/01 01:35:47;;;;;;;;;;;22.60;48.90;;;;;;5097239;28;1005;-45
2022/03/01 01:38:14;;;;;;;;;;;22.60;49.00;;;;;;5097609;28;1000;-46
2022/03/01 01:40:41;;;;;;;;;;;22.60;48.70;;;;;;5100859;28;1000;-44
2022/03/01 01:43:07;;;;;;;;;;;22.70;48.80;;;;;;5101540;28;1906;-44
2022/03/01 01:45:34;;;;;;;;;;;22.60;48.70;;;;;;5101763;28;977;-42
2022/03/01 01:48:02;;;;;;;;;;;22.60;48.70;;;;;;5101998;28;1000;-45
2022/03/01 01:50:29;;;;;;;;;;;22.60;48.50;;;;;;5101572;28;1003;-44
2022/03/01 01:52:57;;;;;;;;;;;22.60;48.50;;;;;;5100897;28;962;-45
2022/03/01 01:55:25;;;;;;;;;;;22.60;48.60;;;;;;5100470;28;1012;-44
2022/03/01 01:57:52;;;;;;;;;;;22.60;48.60;;;;;;5100830;28;1008;-44
2022/03/01 02:00:21;;;;;;;;;;;22.60;48.70;;;;;;5101027;28;953;-45
2022/03/01 02:02:48;;;;;;;;;;;22.60;48.50;;;;;;5102217;28;1905;-47
2022/03/01 02:05:15;;;;;;;;;;;22.60;48.50;;;;;;5100941;28;989;-48
2022/03/01 02:07:48;;;;;;;;;;;22.60;48.50;;;;;;5100806;28;1246;-46
2022/03/01 02:10:17;;;;;;;;;;;22.60;48.50;;;;;;5100696;28;929;-44
2022/03/01 02:12:44;;;;;;;;;;;22.60;48.50;;;;;;5101022;28;991;-44
2022/03/01 02:15:11;;;;;;;;;;;22.60;48.50;;;;;;5100661;28;1035;-45
2022/03/01 02:17:39;;;;;;;;;;;22.50;48.40;;;;;;5100705;28;976;-44
2022/03/01 02:20:09;;;;;;;;;;;22.50;48.40;;;;;;5100084;28;930;-44
2022/03/01 02:22:35;;;;;;;;;;;22.60;48.40;;;;;;5101096;28;1983;-46
2022/03/01 02:25:02;;;;;;;;;;;22.50;48.40;;;;;;5100817;28;1135;-50
2022/03/01 02:27:29;;;;;;;;;;;22.50;48.40;;;;;;5100351;28;1004;-46
2022/03/01 02:29:56;;;;;;;;;;;22.60;48.50;;;;;;5100630;28;1112;-45
2022/03/01 02:32:22;;;;;;;;;;;22.60;48.50;;;;;;5099955;28;921;-47
2022/03/01 02:34:49;;;;;;;;;;;22.50;48.40;;;;;;5100225;28;1296;-46
2022/03/01 02:37:17;;;;;;;;;;;22.50;48.30;;;;;;5100565;28;861;-46
2022/03/01 02:39:44;;;;;;;;;;;22.50;48.40;;;;;;5099524;28;1023;-44
2022/03/01 02:42:11;;;;;;;;;;;22.50;48.30;;;;;;5098941;28;1914;-46
2022/03/01 02:44:38;;;;;;;;;;;22.50;48.30;;;;;;5098886;28;1012;-45
2022/03/01 02:47:05;;;;;;;;;;;22.50;48.30;;;;;;5100634;28;972;-46
2022/03/01 02:49:32;;;;;;;;;;;22.50;48.40;;;;;;5101278;28;1055;-47
2022/03/01 02:51:58;;;;;;;;;;;22.50;48.30;;;;;;5100340;28;1035;-45
2022/03/01 02:54:26;;;;;;;;;;;22.50;48.30;;;;;;5100047;28;972;-45
2022/03/01 02:56:56;;;;;;;;;;;22.50;48.30;;;;;;5100119;28;977;-44
2022/03/01 02:59:23;;;;;;;;;;;22.50;48.20;;;;;;5100286;28;1001;-46
2022/03/01 03:01:50;;;;;;;;;;;22.50;48.30;;;;;;5100212;28;1048;-46
2022/03/01 03:04:16;;;;;;;;;;;22.50;48.20;;;;;;5100151;28;1986;-48
2022/03/01 03:06:43;;;;;;;;;;;22.40;48.30;;;;;;5100064;28;1349;-46
2022/03/01 03:09:10;;;;;;;;;;;22.40;48.20;;;;;;5099535;28;937;-45
2022/03/01 03:11:38;;;;;;;;;;;22.40;48.20;;;;;;5100152;28;938;-46
2022/03/01 03:14:05;;;;;;;;;;;22.40;48.20;;;;;;5100285;28;1066;-45
2022/03/01 03:16:31;;;;;;;;;;;22.40;48.20;;;;;;5099798;28;1055;-46
2022/03/01 03:18:58;;;;;;;;;;;22.40;48.20;;;;;;5099539;28;977;-46
2022/03/01 03:21:25;;;;;;;;;;;22.30;48.20;;;;;;5100567;28;918;-46
2022/03/01 03:23:51;;;;;;;;;;;22.30;48.20;;;;;;5100351;28;1898;-46
2022/03/01 03:26:18;;;;;;;;;;;22.30;48.20;;;;;;5100218;28;889;-45
2022/03/01 03:31:49;;;;;;;;;;;22.30;48.30;;;;;;5098927;28;606;-45
2022/03/01 03:34:16;;;;;;;;;;;22.20;48.20;;;;;;5099118;28;929;-45
2022/03/01 03:36:43;;;;;;;;;;;22.20;48.40;;;;;;5099240;28;988;-47
2022/03/01 03:39:11;;;;;;;;;;;22.20;48.40;;;;;;5099473;28;1066;-48
2022/03/01 03:41:37;;;;;;;;;;;22.20;48.50;;;;;;5098451;28;897;-47
2022/03/01 03:44:05;;;;;;;;;;;22.20;48.50;;;;;;5098885;28;1982;-46
2022/03/01 03:46:32;;;;;;;;;;;22.20;48.50;;;;;;5098414;28;988;-47
2022/03/01 03:49:00;;;;;;;;;;;22.10;48.50;;;;;;5098527;28;945;-45
2022/03/01 03:51:27;;;;;;;;;;;22.10;48.50;;;;;;5098522;28;952;-48
2022/03/01 03:53:53;;;;;;;;;;;22.10;48.50;;;;;;5098373;28;993;-44
2022/03/01 03:56:20;;;;;;;;;;;22.10;48.30;;;;;;5098847;28;1020;-45
2022/03/01 03:58:47;;;;;;;;;;;22.10;48.50;;;;;;5098826;28;1015;-46
2022/03/01 04:01:13;;;;;;;;;;;22.10;48.50;;;;;;5097697;28;1010;-46
2022/03/01 04:03:40;;;;;;;;;;;22.10;48.50;;;;;;5095777;28;1902;-49
2022/03/01 04:06:09;;;;;;;;;;;22.00;48.40;;;;;;5097460;28;1396;-46
2022/03/01 04:08:35;;;;;;;;;;;22.00;48.50;;;;;;5097681;28;1018;-44
2022/03/01 04:11:02;;;;;;;;;;;22.00;48.40;;;;;;5097141;28;933;-44
2022/03/01 04:13:29;;;;;;;;;;;22.00;48.40;;;;;;5097794;28;1028;-46
2022/03/01 04:15:55;;;;;;;;;;;22.00;48.50;;;;;;5097697;28;925;-49
2022/03/01 04:18:22;;;;;;;;;;;22.00;48.60;;;;;;5097255;28;926;-46
2022/03/01 04:20:49;;;;;;;;;;;22.00;49.70;;;;;;5096987;28;994;-44
2022/03/01 04:23:17;;;;;;;;;;;21.90;48.50;;;;;;5098036;28;1983;-47
2022/03/01 04:25:44;;;;;;;;;;;21.90;48.50;;;;;;5097501;28;988;-45
2022/03/01 04:28:10;;;;;;;;;;;21.90;48.50;;;;;;5096294;28;1013;-46
2022/03/01 04:30:37;;;;;;;;;;;21.90;48.50;;;;;;5096789;28;967;-43
2022/03/01 04:33:04;;;;;;;;;;;21.90;48.70;;;;;;5096630;28;1027;-45
2022/03/01 04:35:30;;;;;;;;;;;21.80;48.80;;;;;;5097258;28;945;-44
2022/03/01 04:37:57;;;;;;;;;;;21.90;48.80;;;;;;5097164;28;938;-43
2022/03/01 04:40:25;;;;;;;;;;;21.90;48.80;;;;;;5096039;28;930;-43
2022/03/01 04:42:52;;;;;;;;;;;21.80;49.40;;;;;;5096299;28;1992;-45
2022/03/01 04:45:19;;;;;;;;;;;21.90;49.40;;;;;;5096825;28;1047;-46
2022/03/01 04:47:46;;;;;;;;;;;21.90;49.40;;;;;;5097113;28;955;-43
2022/03/01 04:50:13;;;;;;;;;;;22.00;49.30;;;;;;5097199;28;1031;-43
2022/03/01 04:52:39;;;;;;;;;;;22.00;49.20;;;;;;5097149;28;1009;-45
2022/03/01 04:55:07;;;;;;;;;;;22.10;49.20;;;;;;5096784;28;972;-43
2022/03/01 04:57:35;;;;;;;;;;;22.10;49.20;;;;;;5097103;28;1040;-43
2022/03/01 05:00:02;;;;;;;;;;;22.20;49.20;;;;;;5098121;28;1002;-43
2022/03/01 05:02:29;;;;;;;;;;;22.20;49.20;;;;;;5097407;28;1004;-44
2022/03/01 05:04:55;;;;;;;;;;;22.20;49.20;;;;;;5097675;28;1983;-45
2022/03/01 05:07:22;;;;;;;;;;;22.30;49.30;;;;;;5097459;28;1186;-45
2022/03/01 05:09:49;;;;;;;;;;;22.30;49.20;;;;;;5097175;28;965;-45
2022/03/01 05:12:17;;;;;;;;;;;22.30;49.30;;;;;;5097833;28;977;-45
2022/03/01 05:14:45;;;;;;;;;;;22.30;49.30;;;;;;5100369;28;927;-44
2022/03/01 05:17:12;;;;;;;;;;;22.30;49.40;;;;;;5101723;28;972;-46
2022/03/01 05:19:38;;;;;;;;;;;22.30;49.30;;;;;;5102094;28;1036;-45
2022/03/01 05:22:06;;;;;;;;;;;22.30;49.30;;;;;;5102039;28;997;-43
2022/03/01 05:24:33;;;;;;;;;;;22.30;49.30;;;;;;5101918;28;1908;-44
2022/03/01 05:27:00;;;;;;;;;;;22.30;49.40;;;;;;5100485;28;1017;-44
2022/03/01 05:29:27;;;;;;;;;;;22.20;49.40;;;;;;5101231;28;990;-44
2022/03/01 05:31:55;;;;;;;;;;;22.20;49.40;;;;;;5102091;28;926;-44
2022/03/01 05:34:22;;;;;;;;;;;22.20;49.40;;;;;;5102108;28;1009;-44
2022/03/01 05:36:49;;;;;;;;;;;22.20;49.40;;;;;;5100960;28;996;-45
2022/03/01 05:39:15;;;;;;;;;;;22.20;49.40;;;;;;5101503;28;1032;-44
2022/03/01 05:41:42;;;;;;;;;;;22.20;49.40;;;;;;5101548;28;948;-45
2022/03/01 05:44:09;;;;;;;;;;;22.30;49.40;;;;;;5100221;28;1910;-48
2022/03/01 05:46:36;;;;;;;;;;;22.30;49.50;;;;;;5101518;28;988;-46
2022/03/01 05:49:04;;;;;;;;;;;22.30;49.40;;;;;;5101606;28;953;-46
2022/03/01 05:51:31;;;;;;;;;;;22.30;49.50;;;;;;5100238;28;948;-46
2022/03/01 05:53:57;;;;;;;;;;;22.20;49.50;;;;;;5101313;28;1003;-46
2022/03/01 05:56:24;;;;;;;;;;;22.20;49.50;;;;;;5101042;28;973;-46
2022/03/01 05:58:51;;;;;;;;;;;22.20;49.40;;;;;;5099592;28;1024;-47
2022/03/01 06:01:18;;;;;;;;;;;22.30;49.50;;;;;;5100637;28;985;-47
2022/03/01 06:03:44;;;;;;;;;;;22.20;49.50;;;;;;5101660;28;1971;-46
2022/03/01 06:06:13;;;;;;;;;;;22.20;49.60;;;;;;5100783;28;1106;-44
2022/03/01 06:08:39;;;;;;;;;;;22.20;49.60;;;;;;5099326;28;937;-47
2022/03/01 06:11:06;;;;;;;;;;;22.20;49.60;;;;;;5099961;28;945;-45
2022/03/01 06:13:33;;;;;;;;;;;22.10;49.70;;;;;;5099108;28;1014;-46
2022/03/01 06:16:00;;;;;;;;;;;22.00;49.80;;;;;;5098621;28;1372;-46
2022/03/01 06:18:27;;;;;;;;;;;22.10;49.80;;;;;;5098487;28;990;-45
2022/03/01 06:20:54;;;;;;;;;;;22.00;49.80;;;;;;5098578;28;969;-45
2022/03/01 06:23:22;;;;;;;;;;;22.00;49.90;;;;;;5096906;28;1980;-46
2022/03/01 06:25:49;;;;;;;;;;;21.90;50.00;;;;;;5098635;28;972;-47
2022/03/01 06:28:16;;;;;;;;;;;21.90;50.10;;;;;;5096670;28;1054;-50
2022/03/01 06:30:43;;;;;;;;;;;21.90;50.20;;;;;;5098955;28;937;-45
2022/03/01 06:33:10;;;;;;;;;;;21.90;50.20;;;;;;5098850;28;1034;-46
2022/03/01 06:35:36;;;;;;;;;;;21.90;50.20;;;;;;5099221;28;948;-46
2022/03/01 06:38:03;;;;;;;;;;;21.80;50.00;;;;;;5098160;28;1003;-45
2022/03/01 06:40:31;;;;;;;;;;;21.90;50.10;;;;;;5099404;28;933;-44
2022/03/01 06:42:58;;;;;;;;;;;21.90;50.10;;;;;;5097638;28;1016;-40
2022/03/01 06:45:25;;;;;;;;;;;21.90;50.10;;;;;;5097466;28;1984;-39
2022/03/01 06:47:51;;;;;;;;;;;22.00;50.00;;;;;;5096067;28;1004;-40
2022/03/01 06:50:18;;;;;;;;;;;22.00;50.00;;;;;;5098535;28;984;-41
2022/03/01 06:52:45;;;;;;;;;;;22.00;50.00;;;;;;5097324;28;1019;-40
2022/03/01 06:55:12;;;;;;;;;;;21.90;49.80;;;;;;5098665;28;900;-40
2022/03/01 06:57:40;;;;;;;;;;;21.90;49.90;;;;;;5097632;28;953;-38
2022/03/01 07:00:07;;;;;;;;;;;21.90;50.10;;;;;;5097690;28;1000;-41
2022/03/01 07:02:38;;;;;;;;;;;21.90;50.10;;;;;;5098229;28;937;-40
2022/03/01 07:05:05;;;;;;;;;;;21.80;50.20;;;;;;5098811;28;1909;-38
2022/03/01 07:07:32;;;;;;;;;;;21.80;50.10;;;;;;5098397;28;1028;-46
2022/03/01 07:09:59;;;;;;;;;;;22.00;50.40;;;;;;5098362;28;1094;-47
2022/03/01 07:12:26;;;;;;;;;;;22.00;50.10;;;;;;5098581;28;1031;-48
2022/03/01 07:14:54;;;;;;;;;;;22.10;50.20;;;;;;5097426;28;949;-47
2022/03/01 07:17:21;;;;;;;;;;;22.10;50.00;;;;;;5098402;28;916;-40
2022/03/01 07:19:48;;;;;;;;;;;22.10;50.10;;;;;;5097485;28;1027;-38
2022/03/01 07:22:15;;;;;;;;;;;22.00;50.10;;;;;;5097539;28;976;-38
2022/03/01 07:24:42;;;;;;;;;;;22.00;50.30;;;;;;5097732;28;1906;-40
2022/03/01 07:27:09;;;;;;;;;;;21.90;50.40;;;;;;5098243;28;1051;-40
2022/03/01 07:29:36;;;;;;;;;;;21.90;50.50;;;;;;5095340;28;1002;-40
2022/03/01 07:32:05;;;;;;;;;;;21.80;50.40;;;;;;5097052;28;941;-40
2022/03/01 07:34:33;;;;;;;;;;;21.80;50.40;;;;;;5094758;28;1015;-38
2022/03/01 07:36:59;;;;;;;;;;;21.90;50.50;;;;;;5096106;28;893;-40
2022/03/01 07:39:26;;;;;;;;;;;21.80;50.50;;;;;;5095871;28;1054;-40
2022/03/01 07:41:53;;;;;;;;;;;21.80;50.60;;;;;;5095734;28;1004;-39
2022/03/01 07:44:20;;;;;;;;;;;21.80;50.60;;;;;;5094636;28;1954;-40
2022/03/01 07:46:46;;;;;;;;;;;21.80;50.50;;;;;;5096123;28;1008;-40
2022/03/01 07:49:14;;;;;;;;;;;21.80;50.50;;;;;;5095563;28;1024;-40
2022/03/01 07:51:41;;;;;;;;;;;21.70;50.40;;;;;;5096190;28;972;-40
2022/03/01 07:54:08;;;;;;;;;;;21.80;50.40;;;;;;5095808;28;1022;-39
2022/03/01 07:56:35;;;;;;;;;;;21.80;50.30;;;;;;5095421;28;1027;-40
2022/03/01 07:59:02;;;;;;;;;;;21.80;50.30;;;;;;5095863;28;996;-37
2022/03/01 08:01:28;;;;;;;;;;;21.80;50.20;;;;;;5096182;28;1008;-36
2022/03/01 08:03:55;;;;;;;;;;;21.80;50.20;;;;;;5094636;28;1982;-37
2022/03/01 08:06:23;;;;;;;;;;;21.80;50.10;;;;;;5094756;28;1110;-38
2022/03/01 08:08:50;;;;;;;;;;;21.80;50.10;;;;;;5094334;28;888;-35
2022/03/01 08:11:17;;;;;;;;;;;21.80;50.00;;;;;;5096940;28;1757;-38
2022/03/01 08:13:43;;;;;;;;;;;21.80;50.00;;;;;;5095366;28;1008;-38
2022/03/01 08:16:10;;;;;;;;;;;21.80;49.90;;;;;;5094539;28;968;-38
2022/03/01 08:18:37;;;;;;;;;;;21.90;51.00;;;;;;5094608;28;1007;-36
2022/03/01 08:21:06;;;;;;;;;;;21.80;49.90;;;;;;5094291;28;1031;-37
2022/03/01 08:23:36;;;;;;;;;;;21.80;49.90;;;;;;5092974;28;1024;-38
2022/03/01 08:26:04;;;;;;;;;;;21.80;49.90;;;;;;5095086;28;1926;-36
2022/03/01 08:28:31;;;;;;;;;;;21.80;51.00;;;;;;5094081;28;1056;-38
2022/03/01 08:30:58;;;;;;;;;;;21.80;49.90;;;;;;5094202;28;930;-37
2022/03/01 08:33:25;;;;;;;;;;;21.90;49.90;;;;;;5093680;28;1039;-38
2022/03/01 08:35:55;;;;;;;;;;;21.90;49.80;;;;;;5094461;28;953;-39
2022/03/01 08:38:22;;;;;;;;;;;21.90;49.70;;;;;;5093112;28;941;-38
2022/03/01 08:40:50;;;;;;;;;;;21.90;49.60;;;;;;5093952;28;1020;-38
2022/03/01 08:43:17;;;;;;;;;;;21.90;49.70;;;;;;5092986;28;1016;-38
2022/03/01 08:45:44;;;;;;;;;;;21.90;49.60;;;;;;5093726;28;1902;-38
2022/03/01 08:48:11;;;;;;;;;;;21.90;49.70;;;;;;5092081;28;1027;-37
2022/03/01 08:50:38;;;;;;;;;;;21.90;49.60;;;;;;5092387;28;991;-38
2022/03/01 08:53:05;;;;;;;;;;;21.90;49.60;;;;;;5092881;28;999;-38
2022/03/01 08:55:32;;;;;;;;;;;21.80;49.70;;;;;;5092958;28;853;-38
2022/03/01 08:58:00;;;;;;;;;;;21.90;49.60;;;;;;5092654;28;971;-38
2022/03/01 09:00:27;;;;;;;;;;;21.80;49.70;;;;;;5093713;28;939;-38
2022/03/01 09:02:54;;;;;;;;;;;21.90;49.60;;;;;;5093456;28;1015;-38
2022/03/01 09:05:21;;;;;;;;;;;21.90;49.80;;;;;;5094220;28;1902;-38
2022/03/01 09:07:48;;;;;;;;;;;21.80;49.60;;;;;;5094619;28;1155;-38
2022/03/01 09:10:15;;;;;;;;;;;21.90;49.70;;;;;;5095407;28;949;-38
2022/03/01 09:12:41;;;;;;;;;;;21.80;49.60;;;;;;5094465;28;973;-37
2022/03/01 09:15:10;;;;;;;;;;;21.80;49.60;;;;;;5094190;28;993;-37
2022/03/01 09:17:37;;;;;;;;;;;21.90;49.60;;;;;;5094126;28;842;-38
2022/03/01 09:20:04;;;;;;;;;;;21.80;49.70;;;;;;5094096;28;1043;-38
2022/03/01 09:22:31;;;;;;;;;;;21.80;49.70;;;;;;5093722;28;1013;-38
2022/03/01 09:24:58;;;;;;;;;;;21.80;49.80;;;;;;5093478;28;1914;-38
2022/03/01 09:27:24;;;;;;;;;;;21.80;49.60;;;;;;5093944;28;1023;-36
2022/03/01 09:29:51;;;;;;;;;;;21.80;49.60;;;;;;5093785;28;930;-38
2022/03/01 09:32:19;;;;;;;;;;;21.80;49.70;;;;;;5094334;28;817;-38
2022/03/01 09:34:46;;;;;;;;;;;21.80;49.70;;;;;;5092841;28;1004;-35
2022/03/01 09:37:13;;;;;;;;;;;21.80;49.60;;;;;;5093359;28;1044;-38
2022/03/01 09:39:39;;;;;;;;;;;21.80;49.60;;;;;;5091502;28;1049;-38
2022/03/01 09:42:07;;;;;;;;;;;21.80;49.70;;;;;;5092783;28;976;-38
2022/03/01 09:44:33;;;;;;;;;;;21.80;49.70;;;;;;5093432;28;1913;-38
2022/03/01 09:47:00;;;;;;;;;;;21.80;49.60;;;;;;5092890;28;950;-38
2022/03/01 09:49:29;;;;;;;;;;;21.80;49.60;;;;;;5078402;28;1911;-38
2022/03/01 09:51:56;;;;;;;;;;;21.80;49.60;;;;;;5075433;28;1113;-38
2022/03/01 09:54:23;;;;;;;;;;;21.80;49.60;;;;;;5073331;28;992;-38
2022/03/01 09:56:50;;;;;;;;;;;21.80;49.70;;;;;;5073076;28;1043;-37
2022/03/01 09:59:16;;;;;;;;;;;21.80;49.70;;;;;;5073399;28;1790;-40
2022/03/01 10:01:47;;;;;;;;;;;21.80;49.70;;;;;;5074809;28;934;-37
2022/03/01 10:04:14;;;;;;;;;;;21.70;49.70;;;;;;5076813;28;950;-37
2022/03/01 10:06:43;;;;;;;;;;;21.80;49.80;;;;;;5075791;28;1985;-40
2022/03/01 10:09:14;;;;;;;;;;;21.70;49.60;;;;;;5076548;28;1020;-36
2022/03/01 10:11:41;;;;;;;;;;;21.70;49.70;;;;;;5076894;28;1031;-37
2022/03/01 10:14:08;;;;;;;;;;;21.70;49.80;;;;;;5077867;28;1000;-38
2022/03/01 10:16:37;;;;;;;;;;;21.80;49.90;;;;;;5078674;28;977;-38
2022/03/01 10:19:04;;;;;;;;;;;21.80;49.90;;;;;;5078229;28;912;-37
2022/03/01 10:21:31;;;;;;;;;;;21.80;49.70;;;;;;5078713;28;996;-37
2022/03/01 10:23:59;;;;;;;;;;;21.70;49.50;;;;;;5078579;28;980;-36
2022/03/01 10:26:27;;;;;;;;;;;21.80;49.60;;;;;;5077020;28;1906;-38
2022/03/01 10:28:54;;;;;;;;;;;21.70;49.60;;;;;;5076709;28;1004;-38
2022/03/01 10:31:22;;;;;;;;;;;21.70;49.70;;;;;;5075988;28;980;-36
2022/03/01 10:33:53;;;;;;;;;;;21.70;49.50;;;;;;5075935;28;1008;-37
2022/03/01 10:36:21;;;;;;;;;;;21.70;49.70;;;;;;5077659;28;912;-38
2022/03/01 10:38:53;;;;;;;;;;;21.70;49.50;;;;;;5077294;28;991;-36
2022/03/01 10:41:25;;;;;;;;;;;21.80;49.70;;;;;;5077323;28;980;-38
2022/03/01 10:43:52;;;;;;;;;;;21.70;49.50;;;;;;5076863;28;995;-38
2022/03/01 10:46:19;;;;;;;;;;;21.70;49.60;;;;;;5077821;28;1905;-37
2022/03/01 10:48:46;;;;;;;;;;;21.70;49.70;;;;;;5077963;28;956;-37
2022/03/01 10:51:13;;;;;;;;;;;21.70;49.60;;;;;;5077611;28;1000;-37
2022/03/01 10:53:42;;;;;;;;;;;21.70;49.60;;;;;;5077357;28;1043;-38
2022/03/01 10:56:10;;;;;;;;;;;21.70;49.50;;;;;;5077257;28;933;-37
2022/03/01 10:58:38;;;;;;;;;;;21.80;49.70;;;;;;5077564;28;1846;-37
2022/03/01 11:01:05;;;;;;;;;;;21.70;49.60;;;;;;5076932;28;957;-38
2022/03/01 11:03:32;;;;;;;;;;;21.80;49.70;;;;;;5077178;28;1027;-38
2022/03/01 11:06:00;;;;;;;;;;;21.70;49.60;;;;;;5076527;28;1905;-38
2022/03/01 11:08:31;;;;;;;;;;;21.70;49.50;;;;;;5078176;28;1032;-38
2022/03/01 11:10:59;;;;;;;;;;;21.70;49.50;;;;;;5077602;28;942;-38
2022/03/01 11:13:26;;;;;;;;;;;21.80;49.50;;;;;;5074600;28;964;-38
2022/03/01 11:15:59;;;;;;;;;;;21.80;49.70;;;;;;5074518;28;965;-38
2022/03/01 11:18:31;;;;;;;;;;;21.70;49.40;;;;;;5076333;28;941;-38
2022/03/01 11:20:58;;;;;;;;;;;21.80;49.50;;;;;;5076075;28;988;-38
2022/03/01 11:23:26;;;;;;;;;;;21.80;49.50;;;;;;5076140;28;1036;-38
2022/03/01 11:25:53;;;;;;;;;;;21.80;49.70;;;;;;5075832;28;1969;-37
2022/03/01 11:28:29;;;;;;;;;;;21.80;49.70;;;;;;5076817;28;964;-37
2022/03/01 11:30:57;;;;;;;;;;;21.70;49.70;;;;;;5077311;28;921;-37
2022/03/01 11:33:25;;;;;;;;;;;21.70;49.70;;;;;;5075553;28;991;-38
2022/03/01 11:35:54;;;;;;;;;;;21.70;49.60;;;;;;5075840;28;962;-37
2022/03/01 11:38:25;;;;;;;;;;;21.80;49.80;;;;;;5073760;28;1028;-37
2022/03/01 11:40:52;;;;;;;;;;;21.80;49.70;;;;;;5075594;28;985;-39
2022/03/01 11:43:20;;;;;;;;;;;21.70;49.60;;;;;;5075411;28;1000;-38
2022/03/01 11:45:48;;;;;;;;;;;21.70;49.60;;;;;;5074932;28;1996;-42
2022/03/01 11:48:18;;;;;;;;;;;21.70;49.60;;;;;;5075065;28;1143;-38
2022/03/01 11:50:45;;;;;;;;;;;21.80;49.70;;;;;;5073997;28;1039;-38
2022/03/01 11:53:13;;;;;;;;;;;21.70;49.70;;;;;;5074340;28;1011;-38
2022/03/01 11:55:42;;;;;;;;;;;21.70;49.60;;;;;;5072695;28;944;-38
2022/03/01 11:58:10;;;;;;;;;;;21.70;50.80;;;;;;5074011;28;1099;-41
2022/03/01 12:00:39;;;;;;;;;;;21.70;49.70;;;;;;5074474;28;968;-38
2022/03/01 12:03:07;;;;;;;;;;;21.70;49.50;;;;;;5076332;28;1014;-44
2022/03/01 12:05:36;;;;;;;;;;;21.80;49.70;;;;;;5075836;28;1926;-45
2022/03/01 12:08:03;;;;;;;;;;;21.70;49.60;;;;;;5074885;28;1142;-45
2022/03/01 12:10:30;;;;;;;;;;;21.70;49.50;;;;;;5074520;28;1022;-46
2022/03/01 12:12:57;;;;;;;;;;;21.70;49.60;;;;;;5075887;28;980;-44
2022/03/01 12:15:28;;;;;;;;;;;21.80;49.50;;;;;;5076194;28;984;-44
2022/03/01 12:17:54;;;;;;;;;;;21.70;49.50;;;;;;5076346;28;1808;-44
2022/03/01 12:20:22;;;;;;;;;;;21.70;49.60;;;;;;5077023;28;944;-44
2022/03/01 12:22:58;;;;;;;;;;;21.70;49.50;;;;;;5076799;28;941;-44
2022/03/01 12:25:25;;;;;;;;;;;21.70;49.50;;;;;;5076924;28;1906;-45
2022/03/01 12:27:53;;;;;;;;;;;21.70;49.50;;;;;;5076747;28;939;-44
2022/03/01 12:30:21;;;;;;;;;;;21.70;49.50;;;;;;5076938;28;991;-44
2022/03/01 12:32:56;;;;;;;;;;;21.80;49.50;;;;;;5077492;28;1005;-44
2022/03/01 12:35:23;;;;;;;;;;;21.70;49.40;;;;;;5076337;28;993;-44
2022/03/01 12:37:50;;;;;;;;;;;21.80;49.50;;;;;;5074862;28;988;-44
2022/03/01 12:40:27;;;;;;;;;;;21.70;49.40;;;;;;5074681;28;942;-44
2022/03/01 12:42:59;;;;;;;;;;;21.70;49.40;;;;;;5075667;28;918;-45
2022/03/01 12:45:30;;;;;;;;;;;21.70;49.60;;;;;;5075365;28;1902;-45
2022/03/01 12:47:56;;;;;;;;;;;21.70;49.60;;;;;;5075621;28;1008;-43
2022/03/01 12:50:23;;;;;;;;;;;21.70;49.40;;;;;;5076855;28;1048;-45
2022/03/01 12:52:54;;;;;;;;;;;21.60;49.40;;;;;;5075378;28;930;-45
2022/03/01 12:55:21;;;;;;;;;;;21.70;49.50;;;;;;5076276;28;996;-45
2022/03/01 12:57:49;;;;;;;;;;;21.60;49.40;;;;;;5075532;28;924;-45
2022/03/01 13:00:17;;;;;;;;;;;21.70;49.40;;;;;;5074583;28;1048;-44
2022/03/01 13:02:54;;;;;;;;;;;21.70;49.50;;;;;;5074703;28;1027;-45
2022/03/01 13:05:25;;;;;;;;;;;21.70;49.50;;;;;;5076603;28;930;-45
2022/03/01 13:07:52;;;;;;;;;;;21.70;49.40;;;;;;5075834;28;1245;-45
2022/03/01 13:10:26;;;;;;;;;;;21.70;49.40;;;;;;5075647;28;996;-45
2022/03/01 13:12:54;;;;;;;;;;;21.70;49.40;;;;;;5075585;28;972;-45
2022/03/01 13:15:22;;;;;;;;;;;21.80;49.40;;;;;;5075670;28;906;-46
2022/03/01 13:17:52;;;;;;;;;;;21.70;49.50;;;;;;5075088;28;1023;-45
2022/03/01 13:20:21;;;;;;;;;;;21.70;49.50;;;;;;5076075;28;1021;-46
2022/03/01 13:22:58;;;;;;;;;;;21.70;49.50;;;;;;5074331;28;1091;-45
2022/03/01 13:25:25;;;;;;;;;;;21.70;49.40;;;;;;5075850;28;1000;-45
2022/03/01 13:27:53;;;;;;;;;;;21.70;49.40;;;;;;5074875;28;1902;-44
2022/03/01 13:30:25;;;;;;;;;;;21.70;49.40;;;;;;5074398;28;1003;-45
2022/03/01 13:33:02;;;;;;;;;;;21.70;49.40;;;;;;5074983;28;992;-44
2022/03/01 13:35:29;;;;;;;;;;;21.70;49.40;;;;;;5076545;28;973;-44
2022/03/01 13:37:58;;;;;;;;;;;21.70;49.40;;;;;;5079022;28;941;-45
2022/03/01 13:40:25;;;;;;;;;;;21.70;49.40;;;;;;5078893;28;929;-44
2022/03/01 13:42:52;;;;;;;;;;;21.70;49.40;;;;;;5078989;28;866;-42
2022/03/01 13:45:19;;;;;;;;;;;21.70;49.40;;;;;;5076872;28;940;-46
2022/03/01 13:47:47;;;;;;;;;;;21.70;49.40;;;;;;5080120;28;1980;-46
2022/03/01 13:50:15;;;;;;;;;;;21.70;49.30;;;;;;5079124;28;1004;-44
2022/03/01 13:52:42;;;;;;;;;;;21.70;49.30;;;;;;5079371;28;984;-45
2022/03/01 13:55:10;;;;;;;;;;;21.70;49.40;;;;;;5079744;28;1043;-44
2022/03/01 13:57:38;;;;;;;;;;;21.70;49.30;;;;;;5078635;28;953;-45
2022/03/01 14:00:06;;;;;;;;;;;21.60;49.30;;;;;;5079495;28;959;-45
2022/03/01 14:02:33;;;;;;;;;;;21.70;49.40;;;;;;5079238;28;969;-46
2022/03/01 14:05:03;;;;;;;;;;;21.70;49.40;;;;;;5079511;28;1104;-45
2022/03/01 14:07:30;;;;;;;;;;;21.70;49.30;;;;;;5078497;28;1910;-45
2022/03/01 14:09:57;;;;;;;;;;;21.70;49.40;;;;;;5077924;28;999;-44
2022/03/01 14:12:34;;;;;;;;;;;21.80;49.30;;;;;;5078359;28;1068;-45
2022/03/01 14:15:01;;;;;;;;;;;21.70;49.20;;;;;;5079352;28;1115;-45
2022/03/01 14:17:28;;;;;;;;;;;21.70;49.40;;;;;;5079427;28;1028;-45
2022/03/01 14:19:55;;;;;;;;;;;21.70;49.30;;;;;;5079768;28;1011;-36
2022/03/01 14:22:24;;;;;;;;;;;21.70;49.20;;;;;;5079909;28;964;-38
2022/03/01 14:24:51;;;;;;;;;;;21.70;49.30;;;;;;5078937;28;1035;-39
2022/03/01 14:27:18;;;;;;;;;;;21.70;49.40;;;;;;5079128;28;1987;-39
2022/03/01 14:29:45;;;;;;;;;;;21.70;49.40;;;;;;5078010;28;1156;-38
2022/03/01 14:32:12;;;;;;;;;;;21.70;49.50;;;;;;5075985;28;933;-38
2022/03/01 14:34:39;;;;;;;;;;;21.70;49.40;;;;;;5076183;28;1054;-42
2022/03/01 14:37:06;;;;;;;;;;;21.60;49.40;;;;;;5075517;28;1005;-44
2022/03/01 14:39:34;;;;;;;;;;;21.70;49.50;;;;;;5076384;28;926;-43